Time;durP1;ratioP1;P1;durP2;ratioP2;P2;SDS_P1;SDS_P2;PMS_P1;PMS_P2;Temp;Humidity;BMP_temperature;BMP_pressure;BME280_temperature;BME280_humidity;BME280_pressure;Samples;Min_cycle;Max_cycle;Signal;HPM_P1;HPM_P2
2022/04/09 00:02:12;;;;;;;1.13;0.80;;;;;;;13.64;38.93;93015.72;4931887;28;20449;-76
2022/04/09 00:04:38;;;;;;;1.00;0.70;;;;;;;13.60;38.82;92985.50;4928505;28;20039;-76
2022/04/09 00:07:03;;;;;;;1.63;0.98;;;;;;;13.57;39.12;92990.72;4918725;28;20261;-76
2022/04/09 00:09:29;;;;;;;1.98;1.40;;;;;;;13.33;39.49;93002.44;4921689;28;20295;-75
2022/04/09 00:11:54;;;;;;;1.27;1.17;;;;;;;13.22;39.04;92953.38;4921595;28;20636;-76
2022/04/09 00:14:19;;;;;;;3.10;1.30;;;;;;;13.29;39.62;92975.69;4926183;28;20542;-76
2022/04/09 00:16:45;;;;;;;8.30;1.17;;;;;;;13.21;39.44;92991.88;4925558;28;20418;-76
2022/04/09 00:19:10;;;;;;;3.80;1.05;;;;;;;13.22;39.61;92996.09;4919995;28;20130;-76
2022/04/09 00:21:36;;;;;;;1.92;0.85;;;;;;;13.18;40.05;93009.38;4930282;28;20036;-76
2022/04/09 00:24:02;;;;;;;1.98;1.27;;;;;;;12.97;40.31;92981.44;4926462;28;20043;-76
2022/04/09 00:26:27;;;;;;;2.95;1.23;;;;;;;13.20;40.05;92977.00;4927484;28;20404;-76
2022/04/09 00:28:52;;;;;;;2.15;0.80;;;;;;;13.44;39.51;92982.09;4927034;28;20513;-76
2022/04/09 00:31:18;;;;;;;1.92;1.23;;;;;;;13.64;39.57;92997.00;4924414;28;20111;-76
2022/04/09 00:33:43;;;;;;;1.05;0.82;;;;;;;13.60;38.89;92980.16;4933371;28;20122;-75
2022/04/09 00:36:09;;;;;;;2.47;1.00;;;;;;;13.63;39.24;92995.50;4915725;28;20463;-75
2022/04/09 00:38:34;;;;;;;2.00;1.70;;;;;;;13.65;39.21;92993.22;4942937;28;20027;-76
2022/04/09 00:40:59;;;;;;;3.47;1.65;;;;;;;13.63;39.13;92958.09;4924885;28;20480;-76
2022/04/09 00:43:25;;;;;;;1.10;0.80;;;;;;;13.88;38.85;92989.84;4923986;28;21055;-75
2022/04/09 00:45:50;;;;;;;2.25;0.93;;;;;;;13.97;38.68;92990.41;4921953;28;20589;-76
2022/04/09 00:48:21;;;;;;;0.75;0.70;;;;;;;13.99;38.71;92980.91;4930056;28;20040;-76
2022/04/09 00:50:47;;;;;;;1.75;1.20;;;;;;;13.98;38.88;92984.72;4924098;28;20023;-76
2022/04/09 00:53:15;;;;;;;1.15;0.80;;;;;;;13.97;38.80;92966.34;4922597;28;20024;-76
2022/04/09 00:58:29;;;;;;;2.90;1.10;;;;;;;13.70;39.26;92957.44;4923969;28;20053;-76
2022/04/09 01:00:54;;;;;;;1.60;0.80;;;;;;;13.83;39.21;92955.41;4917229;28;20095;-76
2022/04/09 01:03:21;;;;;;;1.40;1.02;;;;;;;13.84;38.92;92956.94;4924339;28;20541;-75
2022/04/09 01:05:48;;;;;;;0.93;0.70;;;;;;;13.65;39.44;92937.13;4927200;28;20039;-76
2022/04/09 01:08:14;;;;;;;1.02;0.90;;;;;;;13.96;38.81;92959.44;4918013;28;20035;-75
2022/04/09 01:10:40;;;;;;;3.17;0.80;;;;;;;14.01;38.89;92957.28;4928535;28;20039;-76
2022/04/09 01:13:06;;;;;;;2.35;1.27;;;;;;;14.07;38.56;92953.19;4918407;28;20031;-76
2022/04/09 01:15:31;;;;;;;2.25;1.05;;;;;;;14.07;38.67;92937.16;4928227;28;20028;-76
2022/04/09 01:17:59;;;;;;;3.38;1.35;;;;;;;14.08;38.85;92929.91;4923811;28;20309;-76
2022/04/09 01:20:29;;;;;;;1.08;0.80;;;;;;;14.23;38.53;92945.03;4925868;28;20038;-76
2022/04/09 01:22:54;;;;;;;3.03;0.82;;;;;;;14.00;38.70;92915.63;4910163;28;20055;-76
2022/04/09 01:25:20;;;;;;;3.30;1.00;;;;;;;13.77;39.35;92917.50;4926142;28;20043;-76
2022/04/09 01:27:47;;;;;;;1.20;0.90;;;;;;;13.57;39.63;92938.09;4923737;28;20430;-76
2022/04/09 01:30:13;;;;;;;2.03;0.80;;;;;;;13.58;39.97;92938.84;4928436;28;20083;-75
2022/04/09 01:32:39;;;;;;;2.60;1.00;;;;;;;13.79;39.94;92938.53;4923007;28;20028;-76
2022/04/09 01:35:05;;;;;;;1.38;0.95;;;;;;;13.69;39.33;92945.22;4922318;28;20046;-76
2022/04/09 01:37:31;;;;;;;4.63;1.10;;;;;;;13.53;39.91;92937.25;4929943;28;20070;-75
2022/04/09 01:39:57;;;;;;;2.05;1.00;;;;;;;13.35;39.94;92911.31;4925832;28;20391;-76
2022/04/09 01:42:26;;;;;;;1.30;1.00;;;;;;;13.43;39.73;92926.34;4919446;28;20039;-76
2022/04/09 01:44:51;;;;;;;1.40;0.77;;;;;;;13.50;39.58;92943.28;4924115;28;20368;-75
2022/04/09 01:47:19;;;;;;;2.50;1.50;;;;;;;13.48;39.52;92950.88;4922074;28;20034;-75
2022/04/09 01:49:44;;;;;;;3.33;1.48;;;;;;;13.33;39.77;92935.69;4928500;28;20039;-76
2022/04/09 01:52:10;;;;;;;0.73;0.70;;;;;;;13.32;39.75;92931.47;4919321;28;20509;-76
2022/04/09 01:54:35;;;;;;;1.23;0.98;;;;;;;13.20;40.14;92936.97;4919400;28;20052;-75
2022/04/09 01:57:00;;;;;;;0.88;0.60;;;;;;;13.23;40.34;92937.03;4925208;28;20466;-76
2022/04/09 01:59:33;;;;;;;2.40;0.80;;;;;;;13.28;40.07;92942.09;4939250;28;20035;-76
2022/04/09 02:01:59;;;;;;;1.00;0.80;;;;;;;13.18;40.06;92939.19;4944725;28;20032;-76
2022/04/09 02:04:25;;;;;;;2.08;0.98;;;;;;;13.24;40.03;92951.94;4922973;28;20047;-75
2022/04/09 02:06:50;;;;;;;2.38;0.82;;;;;;;13.25;39.91;92952.69;4918272;28;20103;-76
2022/04/09 02:09:16;;;;;;;0.63;0.63;;;;;;;13.05;40.31;92937.78;4928971;28;20039;-76
2022/04/09 02:11:42;;;;;;;1.98;0.65;;;;;;;13.23;40.08;92949.59;4921790;28;20022;-76
2022/04/09 02:14:09;;;;;;;4.30;1.00;;;;;;;13.26;40.05;92965.69;4936387;28;20173;-75
2022/04/09 02:16:35;;;;;;;2.13;1.20;;;;;;;12.58;41.77;92965.31;4921700;28;20031;-75
2022/04/09 02:19:03;;;;;;;1.77;0.70;;;;;;;12.96;40.53;92958.56;4921053;28;20032;-75
2022/04/09 02:21:28;;;;;;;1.75;1.20;;;;;;;13.04;40.40;92962.91;4929326;28;20122;-76
2022/04/09 02:23:54;;;;;;;1.63;0.80;;;;;;;13.23;40.08;92960.28;4921306;28;20153;-76
2022/04/09 02:26:19;;;;;;;1.67;0.98;;;;;;;13.00;40.92;92944.16;4927741;28;20546;-76
2022/04/09 02:28:47;;;;;;;1.73;0.90;;;;;;;12.85;40.76;92966.31;4920525;28;20056;-76
2022/04/09 02:31:13;;;;;;;1.65;0.93;;;;;;;12.63;41.38;92951.69;4920990;28;20035;-76
2022/04/09 02:33:38;;;;;;;1.58;1.02;;;;;;;12.55;41.81;92939.31;4919814;28;20050;-76
2022/04/09 02:36:05;;;;;;;1.50;1.00;;;;;;;12.91;41.54;92953.47;4918257;28;20042;-76
2022/04/09 02:38:31;;;;;;;2.58;1.00;;;;;;;12.95;41.11;92965.00;4922665;28;20034;-76
2022/04/09 02:40:57;;;;;;;4.78;1.90;;;;;;;12.55;41.61;92925.97;4924072;28;20126;-76
2022/04/09 02:43:22;;;;;;;3.97;1.10;;;;;;;12.81;42.20;92966.22;4923192;28;20725;-76
2022/04/09 02:45:48;;;;;;;7.57;1.58;;;;;;;12.29;42.76;92942.50;4928156;28;20170;-76
2022/04/09 02:48:14;;;;;;;3.15;1.15;;;;;;;12.43;43.05;92952.72;4925902;28;20047;-75
2022/04/09 02:50:40;;;;;;;2.22;1.23;;;;;;;12.22;42.64;92945.00;4920084;28;20039;-76
2022/04/09 02:53:05;;;;;;;1.92;1.38;;;;;;;12.09;43.29;92945.41;4929407;29;20027;-76
2022/04/09 02:55:31;;;;;;;1.77;1.25;;;;;;;12.39;42.75;92954.53;4930963;28;20502;-76
2022/04/09 02:57:56;;;;;;;2.08;1.13;;;;;;;12.80;42.37;92929.22;4920291;28;21051;-76
2022/04/09 03:00:22;;;;;;;3.20;1.27;;;;;;;12.52;42.02;92939.97;4926451;28;20046;-76
2022/04/09 03:02:49;;;;;;;3.83;1.17;;;;;;;12.84;41.80;92933.53;4929892;28;20037;-76
2022/04/09 03:05:14;;;;;;;2.95;1.25;;;;;;;13.33;41.27;92943.72;4930172;28;20146;-74
2022/04/09 03:07:40;;;;;;;2.72;1.10;;;;;;;13.58;40.63;92915.59;4925744;28;20489;-76
2022/04/09 03:10:06;;;;;;;2.30;1.10;;;;;;;13.77;40.04;92932.75;4926580;28;21039;-76
2022/04/09 03:12:35;;;;;;;1.58;0.93;;;;;;;13.25;40.83;92940.09;4930110;28;20089;-76
2022/04/09 03:15:00;;;;;;;4.20;1.15;;;;;;;13.43;40.36;92942.38;4936413;28;20043;-75
2022/04/09 03:17:25;;;;;;;1.33;1.20;;;;;;;12.85;41.40;92939.63;4923983;28;20083;-76
2022/04/09 03:19:51;;;;;;;6.00;1.35;;;;;;;12.98;41.57;92942.94;4940511;28;20095;-76
2022/04/09 03:22:16;;;;;;;1.10;1.00;;;;;;;12.39;42.86;92927.88;4930102;28;20048;-76
2022/04/09 03:24:42;;;;;;;3.33;1.58;;;;;;;12.51;42.40;92935.00;4925101;28;20046;-76
2022/04/09 03:27:07;;;;;;;2.67;1.48;;;;;;;12.60;43.04;92944.41;4924144;28;20450;-76
2022/04/09 03:29:32;;;;;;;4.22;1.63;;;;;;;13.09;42.10;92935.94;4926369;28;20031;-76
2022/04/09 03:31:59;;;;;;;6.80;1.58;;;;;;;13.48;41.46;92953.56;4928160;28;20086;-76
2022/04/09 03:34:24;;;;;;;2.72;1.35;;;;;;;13.52;41.05;92940.25;4918811;28;20039;-75
2022/04/09 03:36:50;;;;;;;2.80;1.30;;;;;;;13.64;41.04;92929.47;4944825;28;20058;-76
2022/04/09 03:39:15;;;;;;;4.72;2.00;;;;;;;13.88;40.69;92942.53;4924887;28;20027;-76
2022/04/09 03:41:41;;;;;;;6.40;1.52;;;;;;;13.58;40.49;92918.25;4922148;28;20032;-76
2022/04/09 03:44:06;;;;;;;3.90;1.92;;;;;;;13.75;40.43;92927.75;4925753;28;20027;-76
2022/04/09 03:46:31;;;;;;;2.13;1.23;;;;;;;13.99;40.01;92945.38;4924832;28;20126;-76
2022/04/09 03:48:57;;;;;;;3.90;1.55;;;;;;;13.16;40.96;92912.84;4923894;28;20126;-76
2022/04/09 03:51:22;;;;;;;2.80;1.75;;;;;;;13.10;41.84;92956.97;4922794;28;20067;-76
2022/04/09 03:53:48;;;;;;;2.00;1.23;;;;;;;13.41;41.29;92950.72;4923212;28;20923;-76
2022/04/09 03:56:14;;;;;;;4.65;2.03;;;;;;;12.96;41.68;92924.59;4931453;28;20407;-76
2022/04/09 03:58:40;;;;;;;2.90;1.77;;;;;;;13.20;41.50;92944.97;4944738;28;20146;-76
2022/04/09 04:01:14;;;;;;;3.67;2.22;;;;;;;13.49;40.85;92941.75;4923481;28;20510;-76
2022/04/09 04:03:40;;;;;;;3.20;1.70;;;;;;;13.50;40.80;92927.25;4924129;28;21006;-76
2022/04/09 04:06:06;;;;;;;3.25;1.70;;;;;;;13.73;40.29;92936.16;4932957;28;20032;-76
2022/04/09 04:08:31;;;;;;;4.05;1.45;;;;;;;13.85;40.53;92953.91;4924768;28;20024;-76
2022/04/09 04:10:57;;;;;;;1.67;1.38;;;;;;;13.90;40.22;92936.81;4932479;28;20031;-76
2022/04/09 04:13:22;;;;;;;4.43;1.60;;;;;;;13.83;40.11;92929.44;4918189;28;20368;-76
2022/04/09 04:15:47;;;;;;;5.65;1.88;;;;;;;14.04;39.90;92947.75;4925922;28;20850;-76
2022/04/09 04:18:13;;;;;;;3.70;1.38;;;;;;;14.03;39.94;92943.56;4926595;28;20050;-76
2022/04/09 04:20:38;;;;;;;3.80;1.83;;;;;;;14.04;39.97;92929.03;4922638;28;20031;-76
2022/04/09 04:23:04;;;;;;;2.72;1.70;;;;;;;14.13;39.78;92948.31;4939139;28;20118;-76
2022/04/09 04:25:29;;;;;;;5.90;1.95;;;;;;;14.14;39.64;92944.50;4924364;28;20039;-76
2022/04/09 04:27:55;;;;;;;4.05;1.67;;;;;;;14.09;39.91;92918.06;4924271;28;20044;-76
2022/04/09 04:30:21;;;;;;;2.38;1.85;;;;;;;14.28;39.87;92944.72;4921494;28;20602;-76
2022/04/09 04:32:46;;;;;;;2.72;1.20;;;;;;;14.34;39.69;92948.66;4922328;28;20033;-76
2022/04/09 04:35:12;;;;;;;3.50;2.28;;;;;;;14.30;39.58;92926.44;4920966;28;20031;-76
2022/04/09 04:37:38;;;;;;;3.42;1.70;;;;;;;14.40;39.75;92939.22;4928300;28;20478;-76
2022/04/09 04:40:05;;;;;;;1.52;1.42;;;;;;;14.29;39.85;92924.13;4921914;28;20699;-74
2022/04/09 04:42:30;;;;;;;5.32;1.63;;;;;;;14.24;39.89;92932.44;4929762;28;20032;-76
2022/04/09 04:44:56;;;;;;;2.65;1.40;;;;;;;13.77;40.44;92919.41;4928417;28;20557;-77
2022/04/09 04:47:21;;;;;;;2.92;1.42;;;;;;;13.49;41.19;92936.41;4922190;28;20012;-76
2022/04/09 04:49:46;;;;;;;2.58;1.35;;;;;;;13.83;41.12;92916.09;4929498;28;20493;-75
2022/04/09 04:52:12;;;;;;;4.75;1.77;;;;;;;13.56;41.50;92911.72;4917092;28;20329;-76
2022/04/09 04:54:37;;;;;;;6.57;1.42;;;;;;;14.21;40.57;92928.59;4924651;28;20469;-76
2022/04/09 04:57:02;;;;;;;3.70;1.75;;;;;;;14.38;40.31;92920.06;4919338;28;20089;-76
2022/04/09 04:59:32;;;;;;;3.72;1.52;;;;;;;14.33;39.88;92928.41;4927443;28;20042;-76
2022/04/09 05:01:58;;;;;;;1.77;1.33;;;;;;;14.24;40.43;92911.03;4927554;28;20063;-76
2022/04/09 05:04:25;;;;;;;3.60;1.92;;;;;;;14.35;39.74;92899.41;4925017;28;20183;-76
2022/04/09 05:06:51;;;;;;;4.35;1.67;;;;;;;14.13;39.89;92889.50;4926224;28;20530;-76
2022/04/09 05:09:17;;;;;;;1.92;1.50;;;;;;;14.16;40.92;92923.53;4940571;28;20039;-76
2022/04/09 05:11:42;;;;;;;2.92;1.77;;;;;;;14.65;39.96;92925.50;4920697;28;20406;-76
2022/04/09 05:14:08;;;;;;;3.22;1.77;;;;;;;14.80;39.67;92917.31;4913014;28;20035;-76
2022/04/09 05:16:33;;;;;;;2.20;1.38;;;;;;;14.83;39.80;92910.47;4922207;28;20468;-76
2022/04/09 05:19:00;;;;;;;5.85;1.40;;;;;;;14.73;39.57;92895.03;4920999;28;20055;-76
2022/04/09 05:21:25;;;;;;;2.42;1.17;;;;;;;15.12;39.19;92906.25;4924283;28;20042;-76
2022/04/09 05:23:51;;;;;;;1.73;1.02;;;;;;;13.98;40.94;92898.41;4918678;28;20871;-75
2022/04/09 05:26:16;;;;;;;3.65;1.20;;;;;;;14.72;39.87;92912.97;4920819;28;20043;-76
2022/04/09 05:28:42;;;;;;;3.05;1.52;;;;;;;14.99;39.53;92903.03;4920125;28;20482;-76
2022/04/09 05:31:09;;;;;;;3.75;2.15;;;;;;;14.80;40.09;92911.97;4920414;28;20035;-76
2022/04/09 05:33:35;;;;;;;3.60;1.75;;;;;;;14.33;40.67;92898.97;4921857;28;20036;-76
2022/04/09 05:36:02;;;;;;;3.33;1.60;;;;;;;13.87;40.97;92886.75;4922314;28;20568;-76
2022/04/09 05:38:28;;;;;;;7.07;1.70;;;;;;;13.79;41.46;92895.78;4923735;28;20024;-76
2022/04/09 05:40:53;;;;;;;4.00;1.40;;;;;;;13.66;41.55;92890.56;4924979;28;20274;-76
2022/04/09 05:43:19;;;;;;;2.42;1.45;;;;;;;13.78;41.84;92904.91;4927261;28;20106;-76
2022/04/09 05:45:45;;;;;;;2.05;1.50;;;;;;;13.60;41.27;92859.94;4920831;28;20261;-76
2022/04/09 05:48:10;;;;;;;3.72;1.55;;;;;;;13.61;42.03;92908.78;4921567;28;20039;-76
2022/04/09 05:50:36;;;;;;;1.77;1.40;;;;;;;13.63;41.72;92888.63;4924683;28;20030;-76
2022/04/09 05:53:02;;;;;;;2.65;1.50;;;;;;;13.86;41.08;92895.88;4922530;28;20028;-75
2022/04/09 05:55:27;;;;;;;2.80;1.65;;;;;;;14.23;41.19;92909.53;4925764;28;20414;-75
2022/04/09 05:57:53;;;;;;;3.55;1.55;;;;;;;14.28;40.47;92918.00;4925183;28;20059;-76
2022/04/09 06:00:19;;;;;;;3.47;1.60;;;;;;;14.21;40.50;92923.25;4923660;28;20043;-76
2022/04/09 06:02:44;;;;;;;2.08;1.30;;;;;;;14.23;40.33;92925.56;4927199;28;20039;-76
2022/04/09 06:05:09;;;;;;;4.13;2.08;;;;;;;14.75;39.99;92909.59;4926020;28;20066;-76
2022/04/09 06:07:35;;;;;;;5.50;1.50;;;;;;;14.50;39.88;92924.47;4923051;28;20045;-76
2022/04/09 06:10:03;;;;;;;7.72;2.75;;;;;;;14.26;40.78;92924.84;4919389;28;20315;-76
2022/04/09 06:12:29;;;;;;;2.97;1.65;;;;;;;14.00;41.01;92912.16;4923368;28;20110;-76
2022/04/09 06:14:54;;;;;;;3.53;1.60;;;;;;;14.00;41.16;92907.59;4927275;28;20046;-77
2022/04/09 06:17:20;;;;;;;3.72;2.10;;;;;;;14.03;41.04;92906.13;4920636;28;20033;-76
2022/04/09 06:19:47;;;;;;;2.22;1.42;;;;;;;14.08;40.42;92914.59;4926286;28;20090;-75
2022/04/09 06:22:12;;;;;;;2.88;1.38;;;;;;;13.99;40.66;92903.38;4923174;28;20607;-76
2022/04/09 06:24:38;;;;;;;1.73;1.30;;;;;;;14.11;40.25;92903.22;4919627;28;20048;-76
2022/04/09 06:27:03;;;;;;;3.13;1.45;;;;;;;14.52;40.10;92901.56;4921037;28;20039;-76
2022/04/09 06:29:29;;;;;;;3.33;1.75;;;;;;;14.46;40.18;92903.03;4925143;28;20036;-75
2022/04/09 06:31:54;;;;;;;4.70;2.53;;;;;;;14.33;40.44;92908.91;4924305;28;20122;-76
2022/04/09 06:34:20;;;;;;;2.15;1.10;;;;;;;14.43;40.77;92887.66;4924847;28;20054;-76
2022/04/09 06:36:45;;;;;;;5.57;1.40;;;;;;;14.33;40.86;92890.94;4926419;28;20119;-75
2022/04/09 06:39:11;;;;;;;5.65;1.42;;;;;;;14.76;40.29;92921.84;4927269;28;20403;-76
2022/04/09 06:41:36;;;;;;;4.88;1.75;;;;;;;14.82;40.19;92922.28;4925035;28;20130;-77
2022/04/09 06:44:03;;;;;;;4.20;1.90;;;;;;;14.01;41.83;92919.84;4926351;28;20030;-75
2022/04/09 06:46:28;;;;;;;3.90;2.33;;;;;;;14.25;40.76;92921.38;4924799;28;20126;-76
2022/04/09 06:48:54;;;;;;;6.18;2.17;;;;;;;14.59;40.54;92928.47;4923784;28;20470;-76
2022/04/09 06:51:19;;;;;;;4.18;1.55;;;;;;;13.92;41.66;92926.53;4941482;28;20050;-76
2022/04/09 06:53:44;;;;;;;3.72;2.08;;;;;;;14.09;41.67;92896.66;4913437;28;20024;-76
2022/04/09 06:56:10;;;;;;;7.00;2.03;;;;;;;14.69;40.00;92911.03;4922195;28;20038;-76
2022/04/09 06:58:36;;;;;;;5.93;1.73;;;;;;;14.11;41.15;92903.22;4926624;28;20102;-76
2022/04/09 07:01:02;;;;;;;5.45;2.00;;;;;;;14.79;40.82;92928.38;4928316;28;20039;-76
2022/04/09 07:03:28;;;;;;;4.45;1.67;;;;;;;15.18;40.12;92929.69;4921542;28;20058;-76
2022/04/09 07:05:54;;;;;;;4.93;2.33;;;;;;;14.75;40.72;92924.88;4920987;28;20038;-76
2022/04/09 07:08:20;;;;;;;3.13;1.77;;;;;;;14.71;40.43;92916.03;4920181;28;20130;-77
2022/04/09 07:10:46;;;;;;;5.82;1.75;;;;;;;14.67;40.37;92918.63;4922404;28;20043;-76
2022/04/09 07:13:11;;;;;;;3.83;1.70;;;;;;;14.48;41.57;92922.16;4920229;28;20521;-75
2022/04/09 07:15:37;;;;;;;6.13;1.92;;;;;;;14.60;40.78;92913.97;4914931;28;20039;-76
2022/04/09 07:18:03;;;;;;;3.50;2.25;;;;;;;14.62;40.79;92918.94;4918407;28;20047;-76
2022/04/09 07:20:35;;;;;;;4.53;2.00;;;;;;;14.42;41.28;92910.19;4932254;28;20123;-75
2022/04/09 07:23:02;;;;;;;3.72;2.00;;;;;;;14.67;41.18;92913.28;4919376;28;20657;-76
2022/04/09 07:25:28;;;;;;;3.78;2.17;;;;;;;14.67;41.65;92912.53;4938028;28;20119;-76
2022/04/09 07:27:54;;;;;;;4.82;2.10;;;;;;;15.04;40.53;92921.47;4924103;28;20573;-76
2022/04/09 07:30:20;;;;;;;6.68;2.05;;;;;;;14.99;40.52;92914.53;4918536;28;20050;-76
2022/04/09 07:32:47;;;;;;;5.22;2.95;;;;;;;14.94;40.72;92916.75;4914634;28;20038;-75
2022/04/09 07:35:16;;;;;;;4.80;2.42;;;;;;;14.95;41.07;92910.25;4917851;28;20027;-75
2022/04/09 07:37:43;;;;;;;6.20;2.30;;;;;;;14.96;41.04;92903.78;4934342;28;20042;-76
2022/04/09 07:40:11;;;;;;;7.65;2.33;;;;;;;14.77;41.15;92909.22;4928017;28;20510;-76
2022/04/09 07:42:38;;;;;;;5.35;2.58;;;;;;;15.00;41.06;92907.28;4926283;28;20382;-76
2022/04/09 07:45:04;;;;;;;4.43;2.70;;;;;;;14.87;40.97;92901.34;4921247;28;20473;-75
2022/04/09 07:47:30;;;;;;;3.70;2.70;;;;;;;15.12;41.25;92892.88;4920397;28;20031;-76
2022/04/09 07:49:56;;;;;;;9.60;3.00;;;;;;;15.58;40.16;92901.50;4927626;28;20039;-76
2022/04/09 07:52:21;;;;;;;3.72;2.15;;;;;;;15.44;39.64;92865.41;4915747;28;20447;-76
2022/04/09 07:54:47;;;;;;;5.45;2.78;;;;;;;15.84;39.18;92899.50;4922939;28;20039;-75
2022/04/09 07:57:12;;;;;;;6.78;2.42;;;;;;;16.01;39.87;92890.09;4924478;28;20043;-76
2022/04/09 07:59:37;;;;;;;4.45;2.45;;;;;;;16.03;38.59;92877.09;4927241;28;20024;-76
2022/04/09 08:02:03;;;;;;;9.45;2.53;;;;;;;16.11;39.24;92894.78;4918502;28;20032;-76
2022/04/09 08:04:29;;;;;;;3.83;2.08;;;;;;;15.96;38.87;92893.13;4920867;28;20039;-76
2022/04/09 08:06:54;;;;;;;7.30;2.08;;;;;;;16.09;38.55;92896.28;4921402;28;20047;-76
2022/04/09 08:09:19;;;;;;;5.25;1.67;;;;;;;15.88;38.44;92870.06;4921664;28;20558;-76
2022/04/09 08:11:45;;;;;;;3.50;2.05;;;;;;;16.54;38.30;92892.50;4919134;28;20545;-76
2022/04/09 08:14:11;;;;;;;5.25;2.30;;;;;;;16.38;37.38;92882.00;4919372;28;20139;-76
2022/04/09 08:16:38;;;;;;;4.53;1.80;;;;;;;16.43;37.58;92895.09;4933946;28;20620;-76
2022/04/09 08:19:03;;;;;;;4.95;1.92;;;;;;;16.05;37.51;92866.75;4923275;28;20505;-77
2022/04/09 08:21:29;;;;;;;4.78;1.70;;;;;;;16.02;38.01;92891.66;4921161;28;20038;-76
2022/04/09 08:23:54;;;;;;;12.63;2.10;;;;;;;16.10;37.64;92890.56;4922587;28;20054;-74
2022/04/09 08:26:20;;;;;;;10.00;1.63;;;;;;;16.35;37.25;92887.34;4923742;28;20461;-76
2022/04/09 08:28:45;;;;;;;4.30;1.88;;;;;;;16.70;37.38;92877.66;4919722;28;20054;-76
2022/04/09 08:31:10;;;;;;;3.13;2.03;;;;;;;16.74;37.08;92875.78;4922888;28;20567;-76
2022/04/09 08:33:36;;;;;;;4.78;1.80;;;;;;;16.60;37.03;92869.53;4919905;28;20063;-75
2022/04/09 08:36:04;;;;;;;6.07;1.88;;;;;;;16.65;36.55;92869.19;4927560;28;20520;-76
2022/04/09 08:38:30;;;;;;;6.13;1.80;;;;;;;16.85;36.71;92856.28;4925123;28;20039;-77
2022/04/09 08:40:55;;;;;;;3.70;1.25;;;;;;;16.79;36.15;92855.84;4924955;28;20044;-76
2022/04/09 08:43:21;;;;;;;3.97;1.40;;;;;;;17.10;36.90;92870.59;4924094;28;20095;-76
2022/04/09 08:45:47;;;;;;;3.15;1.80;;;;;;;16.98;35.65;92858.25;4927936;28;20035;-76
2022/04/09 08:48:14;;;;;;;4.30;1.40;;;;;;;17.50;35.15;92872.34;4920713;28;20046;-76
2022/04/09 08:50:43;;;;;;;3.78;1.40;;;;;;;17.89;35.66;92873.22;4924687;28;20548;-76
2022/04/09 08:53:09;;;;;;;2.85;1.33;;;;;;;17.47;35.30;92867.72;4939329;28;20032;-76
2022/04/09 08:55:36;;;;;;;3.25;1.65;;;;;;;17.64;35.20;92858.19;4927253;28;20045;-76
2022/04/09 08:58:03;;;;;;;3.90;1.38;;;;;;;17.47;34.22;92862.34;4924166;28;20588;-76
2022/04/09 09:00:30;;;;;;;3.90;1.40;;;;;;;17.51;34.41;92863.13;4923491;28;20557;-76
2022/04/09 09:02:57;;;;;;;2.60;0.98;;;;;;;17.10;35.36;92849.88;4939836;28;20043;-76
2022/04/09 09:05:48;;;;;;;1.73;0.90;;;;;;;17.23;33.54;92861.09;4927770;28;20465;-76
2022/04/09 09:08:13;;;;;;;3.72;1.50;;;;;;;17.30;35.46;92847.72;4923438;28;20043;-76
2022/04/09 09:10:40;;;;;;;2.38;1.70;;;;;;;17.55;35.43;92863.94;4925495;28;20039;-76
2022/04/09 09:13:11;;;;;;;3.67;1.35;;;;;;;17.50;35.11;92859.66;4920778;28;20043;-76
2022/04/09 09:15:52;;;;;;;3.90;1.33;;;;;;;17.89;35.00;92846.31;4931946;28;20047;-76
2022/04/09 09:18:25;;;;;;;3.10;1.13;;;;;;;17.76;35.83;92831.69;4935721;28;20052;-76
2022/04/09 09:20:58;;;;;;;4.07;1.17;;;;;;;17.67;35.11;92839.38;4923661;28;20102;-76
2022/04/09 09:23:30;;;;;;;1.85;0.90;;;;;;;17.39;36.94;92850.81;4918985;28;20747;-75
2022/04/09 09:25:57;;;;;;;1.77;1.00;;;;;;;17.14;35.11;92839.97;4923892;28;20047;-76
2022/04/09 09:28:30;;;;;;;2.33;1.20;;;;;;;17.47;35.23;92856.97;4921572;28;20090;-76
2022/04/09 09:30:58;;;;;;;2.67;1.52;;;;;;;17.49;34.94;92839.31;4924530;28;20039;-76
2022/04/09 09:33:24;;;;;;;3.10;1.30;;;;;;;17.26;36.25;92822.72;4927450;28;20054;-76
2022/04/09 09:35:54;;;;;;;4.53;1.17;;;;;;;17.43;36.13;92829.31;4928843;28;20045;-76
2022/04/09 09:38:27;;;;;;;2.42;1.13;;;;;;;17.50;35.76;92823.97;4927216;28;20035;-75
2022/04/09 09:40:53;;;;;;;1.60;0.90;;;;;;;17.89;34.16;92827.50;4927270;28;20043;-76
2022/04/09 09:43:21;;;;;;;3.70;1.15;;;;;;;17.68;34.53;92835.53;4925933;28;20036;-76
2022/04/09 09:45:48;;;;;;;1.92;0.88;;;;;;;17.85;34.99;92824.03;4924208;28;20167;-76
2022/04/09 09:48:20;;;;;;;3.55;0.70;;;;;;;17.92;31.80;92810.59;4923569;28;20047;-75
2022/04/09 09:50:45;;;;;;;4.03;0.70;;;;;;;18.42;31.50;92807.94;4923760;28;20122;-75
2022/04/09 09:53:11;;;;;;;2.05;0.85;;;;;;;18.61;31.78;92834.47;4925991;28;20037;-76
2022/04/09 09:55:44;;;;;;;1.27;1.15;;;;;;;18.45;29.90;92799.88;4924461;28;20311;-75
2022/04/09 09:58:16;;;;;;;4.43;1.30;;;;;;;18.77;31.78;92834.84;4925927;28;20077;-76
2022/04/09 10:00:43;;;;;;;1.90;0.90;;;;;;;18.87;31.44;92811.75;4917750;28;20520;-76
2022/04/09 10:03:13;;;;;;;9.32;5.03;;;;;;;18.93;30.90;92815.56;4928689;28;20035;-76
2022/04/09 10:05:39;;;;;;;1.92;0.93;;;;;;;18.86;29.86;92810.97;4928358;28;20384;-76
2022/04/09 10:08:06;;;;;;;0.93;0.60;;;;;;;18.94;30.12;92805.56;4942859;28;20515;-76
2022/04/09 10:10:37;;;;;;;3.63;1.00;;;;;;;18.91;30.00;92807.13;4922505;28;20051;-76
2022/04/09 10:13:07;;;;;;;1.30;0.85;;;;;;;18.80;29.53;92787.53;4930319;28;20043;-75
2022/04/09 10:15:33;;;;;;;3.03;0.70;;;;;;;19.00;29.30;92820.19;4921450;28;20619;-75
2022/04/09 10:18:01;;;;;;;0.65;0.57;;;;;;;19.08;29.35;92816.28;4929606;28;20119;-75
2022/04/09 10:20:29;;;;;;;1.13;0.70;;;;;;;18.99;30.11;92808.63;4924152;28;20835;-75
2022/04/09 10:22:59;;;;;;;1.67;0.70;;;;;;;18.85;29.92;92782.50;4928882;28;20043;-75
2022/04/09 10:25:30;;;;;;;2.63;0.60;;;;;;;19.01;29.60;92800.16;4928799;28;20699;-76
2022/04/09 10:28:04;;;;;;;1.98;0.50;;;;;;;19.05;29.81;92804.38;4927577;28;20485;-75
2022/04/09 10:30:41;;;;;;;2.42;1.00;;;;;;;19.10;30.17;92803.97;4925670;28;20054;-76
2022/04/09 10:33:27;;;;;;;1.92;0.93;;;;;;;19.18;30.10;92797.41;4921844;28;20031;-76
2022/04/09 10:35:52;;;;;;;0.82;0.65;;;;;;;19.19;30.03;92798.16;4940486;28;20067;-76
2022/04/09 10:38:19;;;;;;;1.00;0.63;;;;;;;19.23;31.02;92797.00;4928535;28;20468;-75
2022/04/09 10:40:52;;;;;;;1.98;0.70;;;;;;;19.34;30.15;92802.34;4922873;28;20050;-76
2022/04/09 10:43:21;;;;;;;2.08;1.27;;;;;;;19.17;30.81;92790.47;4940534;28;20039;-75
2022/04/09 10:46:15;;;;;;;2.90;0.77;;;;;;;19.22;30.34;92802.75;4924449;28;20043;-75
2022/04/09 10:48:47;;;;;;;0.80;0.70;;;;;;;18.96;30.89;92754.78;4913202;28;20039;-76
2022/04/09 10:51:13;;;;;;;4.05;0.65;;;;;;;19.28;32.03;92785.03;4929105;28;20132;-76
2022/04/09 10:53:42;;;;;;;1.38;0.60;;;;;;;19.34;29.01;92775.38;4917912;28;20119;-76
2022/04/09 10:56:31;;;;;;;1.42;0.93;;;;;;;19.31;30.18;92770.78;4925453;29;20665;-77
2022/04/09 10:59:08;;;;;;;1.23;0.50;;;;;;;19.22;30.36;92767.72;4940548;28;20075;-77
2022/04/09 11:01:43;;;;;;;2.33;0.75;;;;;;;19.28;30.08;92758.09;4916614;28;20501;-78
2022/04/09 11:04:31;;;;;;;3.80;1.58;;;;;;;19.24;30.11;92766.19;4934135;28;20471;-77
2022/04/09 11:07:02;;;;;;;7.30;4.43;;;;;;;19.18;30.77;92759.66;4925762;28;20391;-77
2022/04/09 11:09:49;;;;;;;1.70;1.20;;;;;;;19.16;28.82;92748.53;4926135;28;20019;-76
2022/04/09 11:12:18;;;;;;;0.70;0.70;;;;;;;19.16;28.59;92736.97;4930013;28;20031;-74
2022/04/09 11:14:47;;;;;;;0.85;0.65;;;;;;;19.11;28.83;92753.56;4931810;28;20027;-76
2022/04/09 11:17:34;;;;;;;2.53;1.10;;;;;;;18.94;29.26;92746.28;4948616;28;20064;-74
2022/04/09 11:20:09;;;;;;;2.40;0.70;;;;;;;19.15;29.88;92746.22;4928249;28;20034;-74
2022/04/09 11:22:37;;;;;;;5.50;1.88;;;;;;;19.10;29.58;92755.47;4926982;28;20570;-75
2022/04/09 11:25:05;;;;;;;6.07;1.10;;;;;;;18.68;29.36;92691.72;4932285;28;20550;-75
2022/04/09 11:27:30;;;;;;;3.63;0.70;;;;;;;18.82;28.79;92717.88;4928190;28;20055;-74
2022/04/09 11:29:56;;;;;;;1.08;0.80;;;;;;;18.78;28.67;92728.66;4932024;28;20166;-76
2022/04/09 11:32:23;;;;;;;1.48;0.98;;;;;;;18.75;28.83;92697.13;4929129;29;20027;-74
2022/04/09 11:34:59;;;;;;;0.93;0.85;;;;;;;19.11;28.70;92738.16;4926484;28;20028;-75
2022/04/09 11:37:27;;;;;;;2.70;0.85;;;;;;;19.12;27.79;92738.91;4928154;28;20035;-75